Time;durP1;ratioP1;P1;durP2;ratioP2;P2;SDS_P1;SDS_P2;PMS_P1;PMS_P2;Temp;Humidity;BMP_temperature;BMP_pressure;BME280_temperature;BME280_humidity;BME280_pressure;Samples;Min_cycle;Max_cycle;Signal;HPM_P1;HPM_P2
2022/12/31 00:01:04;;;;;;;49.20;24.20;;;;;;;4.58;82.37;101025.97;5057175;28;20370;-67
2022/12/31 00:03:29;;;;;;;54.90;27.50;;;;;;;4.61;83.70;101017.94;5056287;28;20033;-67
2022/12/31 00:05:55;;;;;;;47.22;26.00;;;;;;;5.00;84.24;101021.66;5057207;28;20040;-66
2022/12/31 00:08:20;;;;;;;50.03;26.45;;;;;;;5.25;83.52;101029.72;5056593;28;20071;-66
2022/12/31 00:10:46;;;;;;;45.63;25.02;;;;;;;5.47;82.65;101028.38;5056550;28;20063;-67
2022/12/31 00:13:13;;;;;;;57.25;26.27;;;;;;;5.65;81.25;101025.41;5056570;28;20046;-66
2022/12/31 00:15:40;;;;;;;49.28;26.13;;;;;;;5.72;81.29;101036.34;5057172;28;20101;-67
2022/12/31 00:18:06;;;;;;;55.28;27.55;;;;;;;5.75;81.08;101033.53;5056921;28;20040;-66
2022/12/31 00:20:32;;;;;;;47.28;26.05;;;;;;;5.83;80.07;101031.25;5056267;28;20036;-66
2022/12/31 00:22:57;;;;;;;50.50;24.83;;;;;;;5.80;80.07;101039.31;5056922;28;20100;-66
2022/12/31 00:25:23;;;;;;;48.67;25.73;;;;;;;5.93;79.54;101036.75;5056196;28;20033;-66
2022/12/31 00:27:48;;;;;;;45.38;26.00;;;;;;;5.93;79.04;101042.88;5055932;28;20251;-66
2022/12/31 00:30:14;;;;;;;53.92;27.50;;;;;;;5.98;77.66;101045.19;5056703;28;20032;-66
2022/12/31 00:32:40;;;;;;;45.78;25.30;;;;;;;6.02;77.88;101046.69;5056902;28;20319;-66
2022/12/31 00:35:05;;;;;;;62.17;31.42;;;;;;;6.08;77.89;101052.38;5056747;28;20367;-67
2022/12/31 00:37:31;;;;;;;50.92;26.85;;;;;;;6.12;77.51;101057.44;5056841;28;20118;-66
2022/12/31 00:39:56;;;;;;;48.35;26.67;;;;;;;6.15;77.60;101050.19;5056826;28;20045;-66
2022/12/31 00:42:22;;;;;;;45.35;27.13;;;;;;;6.03;77.62;101051.00;5056486;28;20041;-66
2022/12/31 00:44:47;;;;;;;42.90;24.92;;;;;;;5.81;78.27;101053.31;5056960;28;20051;-64
2022/12/31 00:47:13;;;;;;;46.55;26.10;;;;;;;5.75;79.76;101051.91;5056789;28;20045;-65
2022/12/31 00:49:38;;;;;;;46.60;25.65;;;;;;;5.85;79.00;101055.63;5056320;28;20041;-66
2022/12/31 00:52:04;;;;;;;45.97;26.25;;;;;;;5.88;78.51;101052.81;5056915;28;20033;-66
2022/12/31 00:54:29;;;;;;;49.67;26.95;;;;;;;5.90;78.37;101056.22;5056135;28;20032;-66
2022/12/31 00:56:54;;;;;;;48.75;26.13;;;;;;;5.90;78.43;101058.00;5055012;28;20045;-66
2022/12/31 00:59:20;;;;;;;65.97;30.05;;;;;;;5.95;77.49;101053.28;5059633;28;20041;-67
2022/12/31 01:01:45;;;;;;;49.50;25.70;;;;;;;5.84;78.45;101068.88;5060068;28;20048;-65
2022/12/31 01:04:13;;;;;;;78.28;34.65;;;;;;;5.82;78.84;101063.72;5059720;28;20037;-63
2022/12/31 01:06:40;;;;;;;61.25;27.85;;;;;;;5.82;79.48;101061.09;5060061;28;20090;-67
2022/12/31 01:09:06;;;;;;;51.78;28.00;;;;;;;5.76;79.75;101053.59;5059956;28;20060;-66
2022/12/31 01:11:32;;;;;;;76.47;33.50;;;;;;;5.82;79.73;101063.72;5059649;28;20072;-66
2022/12/31 01:14:09;;;;;;;64.25;30.77;;;;;;;5.81;79.73;101053.31;5059703;28;20029;-66
2022/12/31 01:16:48;;;;;;;56.60;28.92;;;;;;;5.93;79.32;101045.50;5058544;28;20044;-65
2022/12/31 01:19:20;;;;;;;55.97;31.67;;;;;;;5.71;80.53;101053.91;5059743;28;20048;-66
2022/12/31 01:21:47;;;;;;;47.88;24.20;;;;;;;5.64;80.63;101057.88;5060111;28;20044;-66
2022/12/31 01:24:13;;;;;;;39.00;22.65;;;;;;;5.70;80.42;101057.47;5064683;28;20029;-66
2022/12/31 01:26:40;;;;;;;39.47;22.25;;;;;;;5.53;81.69;101062.13;5058992;28;20048;-67
2022/12/31 01:29:06;;;;;;;40.20;23.80;;;;;;;5.65;80.55;101056.09;5059579;28;20373;-67
2022/12/31 01:31:33;;;;;;;38.80;22.67;;;;;;;5.53;81.39;101049.00;5058177;28;20045;-67
2022/12/31 01:33:58;;;;;;;41.40;22.90;;;;;;;5.44;82.01;101045.16;5058551;28;20029;-66
2022/12/31 01:36:27;;;;;;;36.42;20.90;;;;;;;5.29;82.80;101048.75;5059946;28;20029;-66
2022/12/31 01:38:54;;;;;;;33.72;20.50;;;;;;;5.43;81.89;101038.22;5058549;28;20100;-66
2022/12/31 01:41:29;;;;;;;40.03;20.30;;;;;;;5.56;80.99;101033.88;5059546;28;20230;-66
2022/12/31 01:44:00;;;;;;;31.58;19.92;;;;;;;5.49;80.72;101043.09;5059909;28;20068;-63
2022/12/31 01:46:28;;;;;;;36.03;21.35;;;;;;;5.63;80.79;101045.66;5058488;28;20098;-67
2022/12/31 01:48:58;;;;;;;39.63;21.55;;;;;;;5.72;80.40;101052.13;5059252;28;20055;-67
2022/12/31 01:51:28;;;;;;;32.83;20.55;;;;;;;5.83;79.24;101047.00;5059682;28;20192;-67
2022/12/31 01:53:54;;;;;;;37.58;21.58;;;;;;;5.94;79.08;101043.72;5059072;28;20208;-66
2022/12/31 01:56:21;;;;;;;42.42;22.55;;;;;;;5.99;78.28;101055.59;5058398;28;20071;-67
2022/12/31 01:58:49;;;;;;;42.28;23.67;;;;;;;5.90;77.92;101058.00;5058749;28;20043;-66
2022/12/31 02:01:27;;;;;;;38.90;23.80;;;;;;;5.93;77.40;101063.91;5058861;28;20045;-66
2022/12/31 02:03:53;;;;;;;41.92;24.45;;;;;;;5.86;78.01;101067.84;5057869;28;20103;-66
2022/12/31 02:06:21;;;;;;;40.78;22.80;;;;;;;5.75;78.32;101060.66;5058231;28;20037;-66
2022/12/31 02:08:47;;;;;;;37.63;22.05;;;;;;;5.79;78.23;101058.66;5057935;28;20074;-67
2022/12/31 02:11:28;;;;;;;42.60;23.70;;;;;;;5.83;78.43;101054.06;5058976;28;20071;-66
2022/12/31 02:13:57;;;;;;;76.13;32.78;;;;;;;5.85;78.46;101054.78;5059010;28;20087;-66
2022/12/31 02:16:41;;;;;;;48.38;25.10;;;;;;;5.78;78.47;101052.56;5058737;28;20045;-66
2022/12/31 02:19:20;;;;;;;37.92;22.02;;;;;;;5.75;78.51;101057.19;5058744;28;20029;-66
2022/12/31 02:21:54;;;;;;;35.42;21.23;;;;;;;5.75;78.28;101060.66;5059155;28;20040;-67
2022/12/31 02:24:44;;;;;;;41.80;25.23;;;;;;;5.79;78.42;101063.91;5058650;28;20265;-67
2022/12/31 02:27:22;;;;;;;36.10;22.23;;;;;;;5.81;78.75;101048.88;5058073;28;20041;-66
2022/12/31 02:30:04;;;;;;;41.05;22.90;;;;;;;5.81;79.05;101041.00;5058087;28;20249;-66
2022/12/31 02:32:40;;;;;;;41.60;23.88;;;;;;;5.80;79.13;101041.94;5057133;28;20350;-66
2022/12/31 02:35:09;;;;;;;48.95;24.27;;;;;;;5.84;78.74;101034.72;5058327;28;20028;-64
2022/12/31 02:37:38;;;;;;;39.88;22.48;;;;;;;5.87;77.35;101039.75;5058435;28;20250;-63
2022/12/31 02:40:07;;;;;;;39.45;23.52;;;;;;;5.84;75.67;101042.59;5058589;28;20047;-66
2022/12/31 02:42:32;;;;;;;43.28;23.70;;;;;;;5.87;75.44;101051.13;5058173;28;20160;-67
2022/12/31 02:44:58;;;;;;;44.35;23.85;;;;;;;5.89;75.96;101044.00;5058932;28;20032;-67
2022/12/31 02:47:51;;;;;;;44.03;24.15;;;;;;;5.88;75.85;101044.06;5058080;28;20033;-66
2022/12/31 02:50:54;;;;;;;41.55;23.20;;;;;;;5.58;77.78;101060.03;5058222;28;20047;-64
2022/12/31 02:53:54;;;;;;;44.15;24.55;;;;;;;5.61;79.08;101046.72;5064423;28;20052;-67
2022/12/31 02:56:46;;;;;;;49.33;23.75;;;;;;;5.57;78.07;101061.00;5036556;28;20135;-63
2022/12/31 03:02:37;;;;;;;41.10;21.98;;;;;;;5.03;77.78;101080.06;5053778;28;20158;-63
2022/12/31 03:05:03;;;;;;;35.65;21.08;;;;;;;4.82;78.37;101086.63;5053258;28;20318;-64
2022/12/31 03:07:31;;;;;;;37.53;21.40;;;;;;;4.60;80.03;101094.09;5053907;28;20068;-65
2022/12/31 03:09:58;;;;;;;41.60;23.40;;;;;;;4.52;81.21;101084.06;5053385;28;20231;-63
2022/12/31 03:12:47;;;;;;;45.08;23.25;;;;;;;4.60;81.49;101079.19;5054663;28;20349;-64
2022/12/31 03:15:26;;;;;;;41.75;22.38;;;;;;;4.71;82.05;101071.53;5058976;28;20060;-63
2022/12/31 03:17:56;;;;;;;48.55;23.13;;;;;;;4.84;81.79;101079.50;5054454;28;20104;-64
2022/12/31 03:23:12;;;;;;;59.95;26.48;;;;;;;5.07;82.36;101088.59;5053468;28;20059;-64
2022/12/31 03:25:37;;;;;;;65.07;27.15;;;;;;;5.22;82.67;101089.47;5052297;28;20095;-63
2022/12/31 03:28:09;;;;;;;67.80;26.00;;;;;;;5.27;82.76;101087.41;5054083;28;20032;-66
2022/12/31 03:30:37;;;;;;;61.92;26.05;;;;;;;5.11;83.46;101090.94;5052581;28;20342;-66
2022/12/31 03:33:04;;;;;;;53.25;24.70;;;;;;;5.26;83.02;101091.81;5053793;28;20046;-67
2022/12/31 03:35:31;;;;;;;63.83;27.83;;;;;;;5.29;82.41;101082.91;5054051;28;20354;-66
2022/12/31 03:37:57;;;;;;;59.67;26.88;;;;;;;5.08;83.26;101085.88;5052273;28;20060;-64
2022/12/31 03:40:25;;;;;;;63.42;28.67;;;;;;;4.88;84.38;101086.25;5052786;28;20029;-64
2022/12/31 03:42:50;;;;;;;54.33;26.17;;;;;;;4.70;85.20;101085.59;5051792;28;20044;-63
2022/12/31 03:45:16;;;;;;;49.35;24.92;;;;;;;4.90;85.69;101086.16;5053189;28;20032;-66
2022/12/31 03:47:41;;;;;;;51.72;25.40;;;;;;;5.15;84.63;101088.97;5051648;28;20322;-66
2022/12/31 03:50:09;;;;;;;51.63;24.38;;;;;;;5.31;83.61;101094.16;5053447;28;20032;-67
2022/12/31 03:52:34;;;;;;;55.53;25.75;;;;;;;5.32;83.32;101101.94;5053560;28;20041;-66
2022/12/31 03:55:01;;;;;;;66.18;28.55;;;;;;;5.30;83.68;101095.94;5053411;28;20033;-66
2022/12/31 03:57:27;;;;;;;65.82;28.13;;;;;;;5.47;83.78;101092.25;5050246;28;20044;-66
2022/12/31 03:59:52;;;;;;;103.47;31.15;;;;;;;5.41;84.06;101088.22;5052131;28;20041;-64
2022/12/31 04:02:18;;;;;;;81.03;31.33;;;;;;;5.22;84.24;101085.06;5052871;28;20048;-63
2022/12/31 04:04:43;;;;;;;97.63;32.38;;;;;;;5.29;84.72;101090.78;5052022;28;20041;-64
2022/12/31 04:07:09;;;;;;;70.57;26.73;;;;;;;5.19;84.30;101093.09;5053035;28;20044;-65
2022/12/31 04:09:34;;;;;;;77.18;25.60;;;;;;;4.63;83.57;101101.78;5050747;28;20037;-67
2022/12/31 04:12:00;;;;;;;55.15;26.60;;;;;;;4.82;83.05;101090.09;5053004;28;20497;-64
2022/12/31 04:14:25;;;;;;;56.65;24.23;;;;;;;5.02;82.30;101098.53;5051569;28;20060;-66
2022/12/31 04:16:51;;;;;;;65.60;26.83;;;;;;;5.16;82.22;101103.78;5052241;28;20041;-65
2022/12/31 04:19:16;;;;;;;53.70;24.25;;;;;;;5.17;82.34;101094.97;5052768;28;20068;-63
2022/12/31 04:21:42;;;;;;;64.20;24.38;;;;;;;5.26;81.76;101110.19;5050603;28;20052;-64
2022/12/31 04:24:07;;;;;;;46.70;23.15;;;;;;;5.25;82.45;101100.63;5051542;28;20033;-63
2022/12/31 04:26:33;;;;;;;80.00;31.30;;;;;;;5.27;82.24;101105.78;5051025;28;20072;-64
2022/12/31 04:28:58;;;;;;;69.53;29.17;;;;;;;5.17;82.53;101100.22;5052101;28;20036;-64
2022/12/31 04:31:24;;;;;;;60.60;29.15;;;;;;;5.24;82.37;101098.09;5051953;28;20103;-64
2022/12/31 04:33:49;;;;;;;111.40;30.48;;;;;;;5.33;83.49;101100.16;5055494;28;20279;-63
2022/12/31 04:36:15;;;;;;;104.40;30.55;;;;;;;5.31;83.54;101108.13;5056257;28;20331;-63
2022/12/31 04:38:40;;;;;;;69.13;29.40;;;;;;;5.30;83.18;101106.44;5056169;28;20044;-64
2022/12/31 04:41:19;;;;;;;110.80;30.23;;;;;;;5.36;84.03;101110.47;5054553;28;20036;-63
2022/12/31 04:43:49;;;;;;;79.57;28.65;;;;;;;5.42;83.98;101112.72;5053292;28;20068;-63
2022/12/31 04:46:18;;;;;;;78.82;28.42;;;;;;;5.51;83.31;101113.91;5055315;28;20045;-65
2022/12/31 04:48:44;;;;;;;76.43;30.42;;;;;;;5.49;83.48;101107.91;5055482;28;20246;-66
2022/12/31 04:51:09;;;;;;;64.22;28.90;;;;;;;5.28;83.74;101094.34;5055257;28;20364;-64
2022/12/31 04:53:35;;;;;;;64.03;30.25;;;;;;;5.08;84.22;101093.75;5055661;28;20040;-63
2022/12/31 04:56:00;;;;;;;57.05;27.33;;;;;;;4.99;84.92;101098.72;5056134;28;20040;-64
2022/12/31 04:58:26;;;;;;;53.92;27.58;;;;;;;5.09;85.36;101110.34;5055393;28;20088;-63
2022/12/31 05:00:54;;;;;;;72.25;31.98;;;;;;;4.16;88.70;101113.25;5054653;28;20577;-63
2022/12/31 05:03:21;;;;;;;67.72;31.40;;;;;;;4.46;88.58;101113.28;5056147;28;20036;-64
2022/12/31 05:05:48;;;;;;;65.97;29.48;;;;;;;4.37;88.64;101114.66;5055728;28;20151;-64
2022/12/31 05:08:15;;;;;;;65.72;28.92;;;;;;;4.54;88.16;101120.69;5055300;28;20037;-62
2022/12/31 05:10:45;;;;;;;62.15;28.52;;;;;;;4.12;90.02;101132.69;5055418;28;20075;-63
2022/12/31 05:13:12;;;;;;;64.07;27.40;;;;;;;4.12;90.35;101125.69;5053392;28;20036;-63
2022/12/31 05:15:37;;;;;;;58.35;27.58;;;;;;;4.37;89.29;101125.16;5056258;28;20041;-64
2022/12/31 05:18:03;;;;;;;72.38;29.38;;;;;;;4.42;88.06;101130.97;5056308;28;20097;-64
2022/12/31 05:20:29;;;;;;;68.78;28.85;;;;;;;4.44;88.23;101123.00;5055445;28;20052;-63
2022/12/31 05:22:54;;;;;;;66.60;26.55;;;;;;;4.50;88.00;101127.91;5056424;28;20044;-63
2022/12/31 05:25:20;;;;;;;59.97;26.70;;;;;;;4.64;88.26;101132.34;5054523;28;20044;-63
2022/12/31 05:27:45;;;;;;;66.75;27.27;;;;;;;4.69;87.72;101148.66;5056135;28;20251;-63
2022/12/31 05:30:11;;;;;;;70.88;28.55;;;;;;;4.66;87.79;101151.44;5052246;28;20250;-64
2022/12/31 05:32:37;;;;;;;63.92;27.17;;;;;;;4.39;89.33;101148.66;5052972;28;20057;-64
2022/12/31 05:35:03;;;;;;;79.72;29.27;;;;;;;4.62;88.84;101152.56;5054107;28;20037;-63
2022/12/31 05:37:30;;;;;;;53.70;25.70;;;;;;;4.73;88.43;101134.41;5054093;28;20564;-63
2022/12/31 05:39:55;;;;;;;48.70;25.27;;;;;;;4.74;88.62;101142.19;5055434;28;20568;-64
2022/12/31 05:42:21;;;;;;;53.20;25.63;;;;;;;4.95;87.19;101149.72;5055254;28;20040;-63
2022/12/31 05:44:47;;;;;;;47.83;24.40;;;;;;;4.65;87.54;101157.63;5055449;28;20029;-66
2022/12/31 05:47:12;;;;;;;56.03;28.05;;;;;;;4.36;89.18;101170.66;5053378;28;20335;-66
2022/12/31 05:49:38;;;;;;;58.13;28.05;;;;;;;4.68;87.99;101168.78;5055051;28;20111;-64
2022/12/31 05:52:04;;;;;;;57.38;27.48;;;;;;;4.91;87.26;101166.59;5053452;28;20172;-64
2022/12/31 05:54:29;;;;;;;48.00;24.65;;;;;;;4.74;87.55;101173.69;5056302;28;20041;-64
2022/12/31 05:56:55;;;;;;;48.58;24.50;;;;;;;4.48;88.05;101175.19;5053757;28;20106;-66
2022/12/31 05:59:20;;;;;;;52.72;26.95;;;;;;;4.51;88.88;101179.44;5054746;28;20040;-65
2022/12/31 06:01:46;;;;;;;54.50;26.77;;;;;;;4.66;88.13;101167.19;5053218;28;20045;-62
2022/12/31 06:04:11;;;;;;;56.00;27.15;;;;;;;4.88;87.87;101172.88;5054747;28;20112;-63
2022/12/31 06:06:36;;;;;;;52.35;27.65;;;;;;;4.97;86.38;101174.94;5055877;28;20044;-67
2022/12/31 06:09:02;;;;;;;52.85;27.98;;;;;;;5.13;86.10;101172.25;5054138;28;20037;-64
2022/12/31 06:11:27;;;;;;;52.38;28.05;;;;;;;5.22;86.11;101176.13;5055431;28;20116;-63
2022/12/31 06:13:53;;;;;;;70.25;32.00;;;;;;;5.37;85.54;101177.81;5054062;28;20364;-66
2022/12/31 06:16:18;;;;;;;59.25;29.77;;;;;;;5.49;84.78;101174.44;5055599;28;20096;-66
2022/12/31 06:18:46;;;;;;;60.45;29.55;;;;;;;5.60;84.33;101184.28;5053915;28;20330;-67
2022/12/31 06:21:11;;;;;;;69.28;34.47;;;;;;;5.67;84.32;101188.22;5054996;28;20363;-66
2022/12/31 06:23:39;;;;;;;62.38;32.00;;;;;;;5.69;83.80;101187.19;5052094;28;20083;-64
2022/12/31 06:26:05;;;;;;;61.30;28.58;;;;;;;5.66;83.65;101176.88;5052688;28;20107;-63
2022/12/31 06:28:31;;;;;;;67.70;35.33;;;;;;;5.70;83.37;101188.03;5053816;28;20037;-67
2022/12/31 06:31:05;;;;;;;67.80;35.13;;;;;;;5.66;83.54;101182.13;5053478;28;20075;-66
2022/12/31 06:33:31;;;;;;;72.72;34.50;;;;;;;5.70;83.62;101190.66;5055057;28;20098;-67
2022/12/31 06:35:58;;;;;;;64.85;34.22;;;;;;;5.74;84.19;101194.78;5053816;28;20098;-66
2022/12/31 06:38:25;;;;;;;63.78;33.28;;;;;;;5.60;84.13;101202.69;5053236;28;20335;-66
2022/12/31 06:40:50;;;;;;;66.57;33.05;;;;;;;5.56;84.20;101207.28;5053611;28;20104;-65
2022/12/31 06:43:16;;;;;;;60.92;33.75;;;;;;;5.61;84.09;101205.22;5053042;28;20033;-66
2022/12/31 06:45:41;;;;;;;79.60;37.70;;;;;;;5.60;83.90;101197.44;5053899;28;20041;-64
2022/12/31 06:48:07;;;;;;;81.40;37.67;;;;;;;5.64;84.34;101206.81;5054730;28;20100;-64
2022/12/31 06:50:33;;;;;;;80.78;39.78;;;;;;;5.66;84.31;101207.56;5053045;28;20043;-66
2022/12/31 06:52:58;;;;;;;83.70;43.38;;;;;;;5.74;84.91;101213.19;5054521;28;20040;-67
2022/12/31 06:55:24;;;;;;;91.68;43.78;;;;;;;5.71;84.66;101211.59;5051508;28;20033;-67
2022/12/31 06:57:49;;;;;;;85.45;41.75;;;;;;;5.90;83.98;101210.47;5054148;28;20041;-67
2022/12/31 07:00:16;;;;;;;89.32;41.83;;;;;;;5.95;83.84;101206.63;5053872;28;20360;-66
2022/12/31 07:03:18;;;;;;;84.07;41.30;;;;;;;6.12;83.91;101213.44;5052094;28;20049;-66
2022/12/31 07:05:54;;;;;;;78.30;42.58;;;;;;;6.26;83.82;101218.69;5049810;28;20052;-67
2022/12/31 07:08:41;;;;;;;100.88;46.58;;;;;;;6.32;82.92;101231.44;5051692;28;20143;-67
2022/12/31 07:11:14;;;;;;;77.70;41.97;;;;;;;6.31;83.88;101231.53;5052804;28;20354;-66
2022/12/31 07:13:54;;;;;;;79.40;40.95;;;;;;;6.30;84.34;101227.22;5053702;28;20040;-66
2022/12/31 07:16:58;;;;;;;74.85;38.70;;;;;;;6.37;84.50;101225.88;5053285;28;20076;-66
2022/12/31 07:19:42;;;;;;;74.90;38.30;;;;;;;6.49;83.92;101232.13;5049837;28;20052;-67
2022/12/31 07:22:14;;;;;;;71.68;41.42;;;;;;;6.64;83.26;101231.97;5051631;28;20045;-68
2022/12/31 07:24:43;;;;;;;73.70;39.40;;;;;;;6.75;83.07;101233.91;5053075;28;20064;-66
2022/12/31 07:27:36;;;;;;;73.75;38.53;;;;;;;6.90;82.85;101232.88;5053175;28;20213;-65
2022/12/31 07:30:10;;;;;;;70.25;40.17;;;;;;;6.97;82.39;101236.81;5053500;28;20558;-66
2022/12/31 07:33:15;;;;;;;72.97;39.80;;;;;;;7.05;82.72;101233.66;5052135;28;20230;-66
2022/12/31 07:36:01;;;;;;;76.38;39.63;;;;;;;7.08;82.62;101236.06;5052283;28;20044;-65
2022/12/31 07:38:39;;;;;;;70.82;40.65;;;;;;;7.19;83.44;101243.25;5053250;28;20048;-66
2022/12/31 07:41:27;;;;;;;71.60;41.30;;;;;;;6.65;85.07;101249.47;5052720;28;20277;-66
2022/12/31 07:43:55;;;;;;;63.58;34.70;;;;;;;6.60;86.14;101255.97;5052113;28;20095;-67
2022/12/31 07:46:42;;;;;;;65.00;36.70;;;;;;;6.81;85.39;101251.09;5053618;28;20040;-66
2022/12/31 07:49:12;;;;;;;61.70;32.45;;;;;;;6.93;84.96;101256.38;5054112;28;20044;-66
2022/12/31 07:51:37;;;;;;;64.82;36.35;;;;;;;7.07;84.91;101257.25;5052972;28;20059;-66
2022/12/31 07:54:03;;;;;;;67.53;37.38;;;;;;;7.26;85.03;101252.44;5053500;28;20036;-66
2022/12/31 07:56:29;;;;;;;66.22;34.50;;;;;;;7.19;84.46;101252.00;5051913;28;20091;-67
2022/12/31 07:59:13;;;;;;;64.63;35.65;;;;;;;6.92;86.77;101261.75;5052415;28;20100;-66
2022/12/31 08:01:46;;;;;;;74.50;39.00;;;;;;;6.75;87.58;101256.75;5052957;28;20044;-65
2022/12/31 08:04:47;;;;;;;73.32;39.78;;;;;;;6.92;87.19;101262.59;5052809;28;20201;-66
2022/12/31 08:07:32;;;;;;;71.75;39.28;;;;;;;7.07;86.39;101263.38;5050485;28;20045;-66
2022/12/31 08:10:16;;;;;;;62.15;35.22;;;;;;;7.11;86.53;101258.75;5051277;28;20053;-68
2022/12/31 08:12:44;;;;;;;60.95;34.58;;;;;;;7.38;86.38;101259.53;5052141;28;20084;-66
2022/12/31 08:15:16;;;;;;;62.00;31.85;;;;;;;7.28;86.24;101261.06;5050849;28;20111;-67
2022/12/31 08:17:42;;;;;;;52.95;28.98;;;;;;;7.46;87.34;101259.00;5052418;28;20045;-66
2022/12/31 08:20:15;;;;;;;48.85;26.85;;;;;;;7.49;86.67;101270.19;5051591;28;20025;-68
2022/12/31 08:22:46;;;;;;;49.45;26.63;;;;;;;7.64;86.70;101266.50;5052898;28;20041;-66
2022/12/31 08:25:18;;;;;;;46.22;26.05;;;;;;;7.87;86.67;101270.16;5051544;28;20231;-66
2022/12/31 08:27:58;;;;;;;48.05;25.52;;;;;;;8.08;85.47;101261.69;5051393;28;20404;-64
2022/12/31 08:30:47;;;;;;;51.40;27.42;;;;;;;8.25;85.14;101272.72;5052296;28;20108;-65
2022/12/31 08:33:21;;;;;;;48.75;28.38;;;;;;;8.47;84.66;101268.59;5000069;28;20118;-64
2022/12/31 08:36:08;;;;;;;44.03;26.98;;;;;;;8.51;84.76;101267.41;5052301;28;20107;-65
2022/12/31 08:38:46;;;;;;;49.42;27.98;;;;;;;8.41;85.42;101276.97;5053158;28;20037;-64
2022/12/31 08:41:25;;;;;;;52.15;28.23;;;;;;;8.56;85.03;101279.34;5051013;28;20048;-64
2022/12/31 08:44:13;;;;;;;56.55;31.27;;;;;;;8.61;85.08;101265.78;5052303;28;20045;-65
2022/12/31 08:46:54;;;;;;;62.50;35.67;;;;;;;8.68;85.34;101260.91;5052402;28;20051;-65
2022/12/31 08:49:19;;;;;;;70.63;37.03;;;;;;;8.81;84.64;101262.53;5051327;28;20109;-65
2022/12/31 08:51:45;;;;;;;67.10;36.70;;;;;;;8.89;84.60;101262.81;5051857;28;20365;-64
2022/12/31 08:54:11;;;;;;;67.63;37.53;;;;;;;8.98;84.23;101257.78;5050955;28;20139;-64
2022/12/31 08:57:02;;;;;;;70.63;37.35;;;;;;;9.04;83.60;101254.69;5051937;28;20032;-64
2022/12/31 09:00:09;;;;;;;69.53;37.45;;;;;;;9.00;84.27;101248.78;5051569;28;20037;-64
2022/12/31 09:02:57;;;;;;;67.80;39.30;;;;;;;9.06;84.08;101247.47;4972786;28;20074;-65
2022/12/31 09:05:33;;;;;;;71.82;38.65;;;;;;;9.24;83.85;101241.66;5049703;28;20045;-64
2022/12/31 09:08:13;;;;;;;73.78;39.33;;;;;;;9.43;83.33;101242.91;5052627;28;20286;-64
2022/12/31 09:11:09;;;;;;;69.28;38.03;;;;;;;9.53;82.93;101241.22;5051817;28;20427;-64
2022/12/31 09:14:01;;;;;;;69.70;39.70;;;;;;;9.63;83.15;101236.91;5048926;28;20361;-64
2022/12/31 09:16:55;;;;;;;86.40;46.80;;;;;;;9.71;83.14;101238.97;5050493;28;20041;-65
2022/12/31 09:19:20;;;;;;;79.20;44.15;;;;;;;9.77;82.65;101234.03;5054051;28;20095;-64
2022/12/31 09:21:46;;;;;;;65.70;37.00;;;;;;;9.86;82.67;101235.09;5055251;28;20033;-63
2022/12/31 09:24:13;;;;;;;57.63;35.90;;;;;;;9.85;81.34;101222.84;5055560;28;20025;-64
2022/12/31 09:26:44;;;;;;;56.03;33.60;;;;;;;9.90;81.31;101215.38;5054829;28;20036;-65
2022/12/31 09:29:19;;;;;;;52.90;32.10;;;;;;;10.00;81.18;101220.78;5056599;28;20222;-64
2022/12/31 09:31:57;;;;;;;48.95;30.45;;;;;;;10.05;79.67;101213.31;5056703;28;20041;-65
2022/12/31 09:34:28;;;;;;;44.72;25.45;;;;;;;10.14;78.63;101220.53;5055511;28;20474;-63
2022/12/31 09:37:33;;;;;;;35.80;22.08;;;;;;;10.13;77.37;101217.03;5055731;28;20279;-65
2022/12/31 09:40:16;;;;;;;39.78;25.08;;;;;;;10.18;77.12;101214.00;5022341;28;20061;-64
2022/12/31 09:43:11;;;;;;;39.78;23.42;;;;;;;10.15;77.71;101196.56;5055390;28;20040;-65
2022/12/31 09:46:14;;;;;;;39.30;24.63;;;;;;;10.22;78.35;101196.94;5015704;28;20307;-64
2022/12/31 09:49:27;;;;;;;40.83;24.50;;;;;;;10.29;77.99;101190.19;5031937;28;20063;-65
2022/12/31 09:52:05;;;;;;;41.88;25.42;;;;;;;10.42;77.76;101182.13;5023104;28;20122;-65
2022/12/31 09:55:18;;;;;;;38.20;23.73;;;;;;;10.40;77.87;101186.66;5058360;28;20039;-64
2022/12/31 09:58:11;;;;;;;39.47;24.15;;;;;;;10.35;78.33;101180.91;5053391;28;20053;-64
2022/12/31 10:00:51;;;;;;;41.97;25.15;;;;;;;10.30;78.60;101173.34;5058688;28;20048;-64
2022/12/31 10:03:35;;;;;;;43.45;24.98;;;;;;;10.33;78.29;101169.59;5057730;28;20052;-64
2022/12/31 10:06:25;;;;;;;37.03;23.13;;;;;;;10.44;77.87;101169.59;5059746;28;20339;-67
2022/12/31 10:09:19;;;;;;;48.10;27.90;;;;;;;10.50;78.86;101172.56;5059890;28;20110;-64
2022/12/31 10:12:23;;;;;;;43.20;27.40;;;;;;;10.44;79.27;101162.50;5029045;28;20060;-65
2022/12/31 10:15:00;;;;;;;40.45;26.02;;;;;;;10.36;79.31;101156.94;5027842;28;20033;-64
2022/12/31 10:17:53;;;;;;;42.22;25.60;;;;;;;10.33;79.77;101153.72;5059202;28;20086;-63
2022/12/31 10:20:40;;;;;;;46.63;26.02;;;;;;;10.36;79.98;101143.72;5058675;28;20037;-63
2022/12/31 10:23:26;;;;;;;37.78;23.05;;;;;;;10.38;79.59;101151.53;5058426;28;20111;-64
2022/12/31 10:26:42;;;;;;;41.42;25.10;;;;;;;10.51;78.71;101146.94;5059409;28;20051;-67
2022/12/31 10:29:38;;;;;;;38.42;23.05;;;;;;;10.60;79.17;101137.38;4976515;28;20045;-66
2022/12/31 10:32:31;;;;;;;35.47;23.33;;;;;;;10.67;79.00;101142.03;4976427;28;20394;-67
2022/12/31 10:35:08;;;;;;;36.40;23.08;;;;;;;10.75;78.82;101138.75;5062751;28;20048;-66
2022/12/31 10:37:55;;;;;;;38.10;21.30;;;;;;;10.77;79.52;101132.34;5078535;28;20051;-66
2022/12/31 10:40:59;;;;;;;36.22;22.73;;;;;;;10.76;78.54;101128.00;5078941;28;20222;-63
2022/12/31 10:43:58;;;;;;;36.00;21.20;;;;;;;10.75;79.53;101125.50;5026668;28;20048;-65
2022/12/31 10:47:06;;;;;;;40.13;22.33;;;;;;;10.45;80.19;101113.84;5073515;28;20054;-64
2022/12/31 10:49:40;;;;;;;36.25;22.33;;;;;;;10.36;81.53;101124.34;5079176;28;20111;-67
2022/12/31 10:52:30;;;;;;;36.75;21.67;;;;;;;10.56;80.15;101110.31;5064925;28;20044;-67
2022/12/31 10:55:01;;;;;;;36.35;22.95;;;;;;;10.65;79.48;101112.19;5071214;28;20043;-67
2022/12/31 10:58:08;;;;;;;33.05;21.95;;;;;;;10.74;80.24;101103.47;5078077;28;20372;-67
2022/12/31 11:01:08;;;;;;;36.95;21.67;;;;;;;10.80;80.15;101105.59;5056452;28;20060;-64
2022/12/31 11:04:03;;;;;;;36.67;21.10;;;;;;;10.68;79.79;101101.34;5071172;28;20093;-64
2022/12/31 11:06:40;;;;;;;;;;;;;;;10.63;80.08;101105.34;5062674;28;20116;-64
2022/12/31 11:09:39;;;;;;;35.15;21.48;;;;;;;10.79;78.86;101092.47;5056864;28;19921;-65
2022/12/31 11:12:15;;;;;;;37.03;21.50;;;;;;;10.83;78.65;101091.25;5057399;28;20203;-64
2022/12/31 11:14:53;;;;;;;39.17;22.15;;;;;;;10.90;79.02;101092.38;5056473;28;20043;-64
2022/12/31 11:17:35;;;;;;;37.05;22.60;;;;;;;11.01;78.40;101087.00;5057444;28;20095;-65
2022/12/31 11:20:19;;;;;;;38.17;22.15;;;;;;;10.93;78.17;101078.88;5057350;28;20487;-65
2022/12/31 11:23:21;;;;;;;38.30;22.80;;;;;;;10.85;78.67;101086.66;5056797;28;20058;-65
2022/12/31 11:26:15;;;;;;;34.95;22.95;;;;;;;10.97;78.19;101074.16;5057675;28;20108;-64
2022/12/31 11:28:40;;;;;;;46.60;27.15;;;;;;;10.96;79.83;101070.66;5058093;28;20037;-64
2022/12/31 11:31:34;;;;;;;46.28;27.02;;;;;;;11.00;78.72;101077.38;5057327;28;20060;-65
2022/12/31 11:34:21;;;;;;;51.67;28.80;;;;;;;11.20;78.15;101073.84;5058372;28;20041;-65
2022/12/31 11:36:58;;;;;;;47.15;29.17;;;;;;;11.10;80.15;101070.31;5058124;28;20358;-65
2022/12/31 11:39:59;;;;;;;47.13;27.40;;;;;;;11.07;80.03;101069.75;5058375;28;20071;-65
2022/12/31 11:42:31;;;;;;;42.03;26.90;;;;;;;11.04;79.18;101064.69;5057924;28;20426;-65
2022/12/31 11:45:15;;;;;;;43.53;26.52;;;;;;;11.12;79.90;101065.72;5056494;28;20038;-64
2022/12/31 11:48:02;;;;;;;42.72;26.80;;;;;;;11.28;79.12;101061.72;5056489;28;20064;-65
2022/12/31 11:50:42;;;;;;;42.70;25.55;;;;;;;11.29;78.88;101066.06;5058601;28;20433;-65
2022/12/31 11:53:31;;;;;;;39.75;24.55;;;;;;;11.29;78.98;101069.53;5058746;28;20039;-64
2022/12/31 11:56:15;;;;;;;39.40;22.85;;;;;;;11.27;79.64;101075.97;5056679;28;20048;-65